createdAt,value
2023-01-05T00:03:16.612Z,96696.91
2023-01-05T00:08:38.094Z,96703.75
2023-01-05T00:14:18.048Z,96690.59
2023-01-05T00:19:57.222Z,96690.50
2023-01-05T00:25:27.388Z,96675.53
2023-01-05T00:30:48.288Z,96671.88
2023-01-05T00:36:10.567Z,96680.63
2023-01-05T00:41:31.695Z,96673.09
2023-01-05T00:46:52.413Z,96651.72
2023-01-05T00:52:13.015Z,96623.13
2023-01-05T00:57:34.112Z,96638.97
2023-01-05T01:02:55.120Z,96673.06
2023-01-05T01:08:16.657Z,96675.25
2023-01-05T01:13:39.018Z,96659.47
2023-01-05T01:19:04.981Z,96660.13
2023-01-05T01:24:28.057Z,96654.91
2023-01-05T01:29:48.872Z,96656.72
2023-01-05T01:35:10.065Z,96644.66
2023-01-05T01:40:31.101Z,96633.31
2023-01-05T01:45:53.247Z,96645.22
2023-01-05T01:51:23.519Z,96639.88
2023-01-05T01:56:51.323Z,96648.50
2023-01-05T02:02:13.977Z,96627.81
2023-01-05T02:07:42.967Z,96635.63
2023-01-05T02:13:29.485Z,96640.56
2023-01-05T02:19:34.156Z,96626.34
2023-01-05T02:25:13.182Z,96607.31
2023-01-05T02:30:54.347Z,96604.59
2023-01-05T02:36:28.309Z,96600.19
2023-01-05T02:42:00.891Z,96602.81
2023-01-05T02:47:24.737Z,96591.84
2023-01-05T02:53:09.979Z,96588.00
2023-01-05T02:58:52.987Z,96601.41
2023-01-05T03:04:22.590Z,96600.28
2023-01-05T03:09:45.142Z,96591.50
2023-01-05T03:15:26.711Z,96576.72
2023-01-05T03:20:51.379Z,96569.72
2023-01-05T03:26:32.005Z,96556.16
2023-01-05T03:32:31.612Z,96548.94
2023-01-05T03:38:18.838Z,96538.78
2023-01-05T03:43:42.786Z,96541.25
2023-01-05T03:49:03.509Z,96546.34
2023-01-05T03:54:24.316Z,96539.94
2023-01-05T03:59:45.778Z,96542.25
2023-01-05T04:05:08.209Z,96545.13
2023-01-05T04:10:29.244Z,96528.03
2023-01-05T04:15:52.944Z,96530.16
2023-01-05T04:21:14.051Z,96519.34
2023-01-05T04:26:34.665Z,96528.38
2023-01-05T04:31:56.529Z,96532.31
2023-01-05T04:37:17.750Z,96523.00
2023-01-05T04:42:38.435Z,96543.22
2023-01-05T04:48:00.283Z,96564.16
2023-01-05T04:53:23.391Z,96546.53
2023-01-05T04:58:44.575Z,96548.84
2023-01-05T05:04:06.544Z,96550.09
2023-01-05T05:09:27.109Z,96544.47
2023-01-05T05:14:48.556Z,96551.31
2023-01-05T05:20:10.015Z,96552.97
2023-01-05T05:25:31.364Z,96546.56
2023-01-05T05:30:52.692Z,96556.09
2023-01-05T05:36:13.412Z,96551.88
2023-01-05T05:41:34.007Z,96557.91
2023-01-05T05:46:54.618Z,96561.44
2023-01-05T05:52:15.389Z,96573.50
2023-01-05T05:57:36.484Z,96567.59
2023-01-05T06:02:58.770Z,96574.56
2023-01-05T06:08:20.085Z,96586.03
2023-01-05T06:13:41.265Z,96594.09
2023-01-05T06:19:01.997Z,96581.09
2023-01-05T06:24:22.832Z,96584.78
2023-01-05T06:29:43.530Z,96594.75
2023-01-05T06:35:04.383Z,96617.31
2023-01-05T06:40:25.306Z,96625.78
2023-01-05T06:45:46.217Z,96618.97
2023-01-05T06:51:06.826Z,96613.50
2023-01-05T06:56:27.386Z,96627.00
2023-01-05T07:01:48.172Z,96622.38
2023-01-05T07:07:13.074Z,96632.91
2023-01-05T07:12:34.122Z,96631.38
2023-01-05T07:17:54.692Z,96622.91
2023-01-05T07:23:15.483Z,96613.84
2023-01-05T07:28:37.919Z,96631.06
2023-01-05T07:33:58.918Z,96645.97
2023-01-05T07:39:19.633Z,96651.16
2023-01-05T07:44:40.278Z,96655.66
2023-01-05T07:50:01.931Z,96657.69
2023-01-05T07:55:22.713Z,96669.97
2023-01-05T08:00:43.350Z,96668.31
2023-01-05T08:06:10.196Z,96681.56
2023-01-05T08:11:31.608Z,96687.00
2023-01-05T08:16:52.454Z,96693.03
2023-01-05T08:22:13.405Z,96705.16
2023-01-05T08:27:35.099Z,96708.41
2023-01-05T08:32:55.758Z,96716.97
2023-01-05T08:38:16.558Z,96723.75
2023-01-05T08:43:37.247Z,96730.66
2023-01-05T08:49:00.308Z,96735.94
2023-01-05T08:54:21.281Z,96746.03
2023-01-05T08:59:44.021Z,96752.47
2023-01-05T09:05:05.203Z,96765.78
2023-01-05T09:10:26.053Z,96777.66
2023-01-05T09:15:46.873Z,96794.84
2023-01-05T09:21:09.493Z,96810.06
2023-01-05T09:26:30.304Z,96799.78
2023-01-05T09:31:51.128Z,96814.56
2023-01-05T09:37:11.747Z,96812.66
2023-01-05T09:42:34.200Z,96817.97
2023-01-05T09:47:57.750Z,96814.09
2023-01-05T09:53:26.849Z,96822.84
2023-01-05T09:58:47.922Z,96797.13
2023-01-05T10:04:17.101Z,96801.25
2023-01-05T10:09:40.137Z,96801.09
2023-01-05T10:15:33.451Z,96807.06
2023-01-05T10:20:56.822Z,96809.19
2023-01-05T10:26:28.341Z,96800.91
2023-01-05T10:32:05.346Z,96799.38
2023-01-05T10:37:52.645Z,96800.97
2023-01-05T10:43:41.419Z,96804.00
2023-01-05T10:49:02.259Z,96790.63
2023-01-05T10:54:41.562Z,96790.34
2023-01-05T11:00:15.706Z,96798.75
2023-01-05T11:05:39.757Z,96801.34
2023-01-05T11:11:03.920Z,96809.81
2023-01-05T11:16:33.892Z,96808.75
2023-01-05T11:22:01.459Z,96811.34
2023-01-05T11:27:24.995Z,96825.75
2023-01-05T11:32:47.704Z,96820.88
2023-01-05T11:38:22.651Z,96814.88
2023-01-05T11:43:54.523Z,96826.13
2023-01-05T11:49:19.638Z,96819.72
2023-01-05T11:54:41.195Z,96826.16
2023-01-05T12:00:02.662Z,96812.59
2023-01-05T12:05:44.542Z,96824.91
2023-01-05T12:11:14.257Z,96823.00
2023-01-05T12:16:49.864Z,96832.00
2023-01-05T12:22:32.149Z,96835.31
2023-01-05T12:28:11.124Z,96847.03
2023-01-05T12:34:03.604Z,96845.09
2023-01-05T12:39:33.194Z,96842.50
2023-01-05T12:44:59.836Z,96840.44
2023-01-05T12:50:35.359Z,96847.25
2023-01-05T12:55:59.917Z,96849.56
2023-01-05T13:01:25.805Z,96841.63
2023-01-05T13:06:53.343Z,96846.69
2023-01-05T13:12:14.112Z,96849.03
2023-01-05T13:17:38.358Z,96844.75
2023-01-05T13:23:14.490Z,96845.78
2023-01-05T13:28:35.663Z,96861.97
2023-01-05T13:34:26.092Z,96865.41
2023-01-05T13:39:59.210Z,96864.16
2023-01-05T13:45:58.682Z,96879.53
2023-01-05T13:51:40.933Z,96878.66
2023-01-05T13:57:08.986Z,96881.06
2023-01-05T14:02:40.052Z,96883.03
2023-01-05T14:08:05.194Z,96876.56
2023-01-05T14:13:47.298Z,96873.41
2023-01-05T14:19:21.769Z,96890.91
2023-01-05T14:24:48.209Z,96895.66
2023-01-05T14:30:21.371Z,96909.59
2023-01-05T14:35:44.426Z,96922.75
2023-01-05T14:41:15.744Z,96911.56
2023-01-05T14:46:51.630Z,96922.94
2023-01-05T14:52:40.005Z,96945.03
2023-01-05T14:58:11.673Z,96953.19
2023-01-05T15:03:44.806Z,96958.78
2023-01-05T15:09:23.956Z,96958.88
2023-01-05T15:15:01.172Z,96960.31
2023-01-05T15:20:40.437Z,96968.56
2023-01-05T15:26:07.639Z,96966.91
2023-01-05T15:31:49.104Z,96974.63
2023-01-05T15:37:39.539Z,96969.19
2023-01-05T15:43:03.941Z,96994.59
2023-01-05T15:48:33.387Z,96998.59
2023-01-05T15:53:57.676Z,97003.19
2023-01-05T15:59:32.235Z,97011.47
2023-01-05T16:05:30.403Z,97016.53
2023-01-05T16:10:59.733Z,97031.19
2023-01-05T16:16:51.222Z,97039.91
2023-01-05T16:22:52.793Z,97033.44
2023-01-05T16:28:18.855Z,97039.34
2023-01-05T16:33:40.391Z,97036.69
2023-01-05T16:39:21.870Z,97054.75
2023-01-05T16:44:52.082Z,97058.88
2023-01-05T16:50:21.889Z,97068.41
2023-01-05T16:55:42.815Z,97058.88
2023-01-05T17:01:10.410Z,97065.81
2023-01-05T17:06:32.111Z,97069.97
2023-01-05T17:11:53.172Z,97074.44
2023-01-05T17:17:14.511Z,97089.91
2023-01-05T17:22:35.792Z,97083.75
2023-01-05T17:27:56.729Z,97092.06
2023-01-05T17:33:18.076Z,97097.53
2023-01-05T17:38:38.796Z,97101.19
2023-01-05T17:43:59.755Z,97112.97
2023-01-05T17:49:21.141Z,97125.97
2023-01-05T17:54:43.812Z,97128.66
2023-01-05T18:00:07.004Z,97124.97
2023-01-05T18:05:28.851Z,97129.72
2023-01-05T18:10:49.715Z,97141.75
2023-01-05T18:16:12.784Z,97149.06
2023-01-05T18:21:35.691Z,97160.50
2023-01-05T18:26:56.251Z,97163.00
2023-01-05T18:32:16.924Z,97169.25
2023-01-05T18:37:39.183Z,97179.84
2023-01-05T18:42:59.852Z,97182.91
2023-01-05T18:48:20.507Z,97184.44
2023-01-05T18:53:41.775Z,97187.75
2023-01-05T18:59:02.470Z,97200.63
2023-01-05T19:04:23.283Z,97203.34
2023-01-05T19:09:43.899Z,97202.28
2023-01-05T19:15:05.041Z,97201.19
2023-01-05T19:20:26.214Z,97199.75
2023-01-05T19:25:46.819Z,97215.22
2023-01-05T19:31:13.028Z,97223.22
2023-01-05T19:36:35.644Z,97221.94
2023-01-05T19:41:56.600Z,97229.94
2023-01-05T19:47:18.527Z,97234.06
2023-01-05T19:52:40.151Z,97233.34
2023-01-05T19:58:00.743Z,97235.22
2023-01-05T20:03:22.595Z,97229.41
2023-01-05T20:08:43.940Z,97233.97
2023-01-05T20:14:14.209Z,97241.53
2023-01-05T20:19:36.146Z,97232.50
2023-01-05T20:24:57.032Z,97237.81
2023-01-05T20:30:18.484Z,97251.31
2023-01-05T20:35:40.889Z,97255.38
2023-01-05T20:41:02.200Z,97270.69
2023-01-05T20:46:26.305Z,97280.97
2023-01-05T20:51:48.707Z,97291.16
2023-01-05T20:57:09.744Z,97285.63
2023-01-05T21:02:30.544Z,97303.59
2023-01-05T21:07:51.179Z,97304.75
2023-01-05T21:13:30.685Z,97308.34
2023-01-05T21:18:53.574Z,97317.41
2023-01-05T21:24:15.067Z,97315.75
2023-01-05T21:29:36.187Z,97320.84
2023-01-05T21:34:56.995Z,97326.44
2023-01-05T21:40:17.918Z,97333.63
2023-01-05T21:45:40.677Z,97330.78
2023-01-05T21:51:31.376Z,97329.97
2023-01-05T21:56:52.526Z,97330.50
2023-01-05T22:02:14.559Z,97333.31
2023-01-05T22:07:35.327Z,97337.09
2023-01-05T22:12:55.981Z,97340.41
2023-01-05T22:18:16.653Z,97338.13
2023-01-05T22:23:37.741Z,97340.72
2023-01-05T22:28:58.859Z,97341.34
2023-01-05T22:34:19.848Z,97356.59
2023-01-05T22:39:40.738Z,97362.41
2023-01-05T22:45:01.493Z,97369.47
2023-01-05T22:50:22.091Z,97360.84
2023-01-05T22:55:44.628Z,97364.03
2023-01-05T23:01:10.596Z,97369.22
2023-01-05T23:06:31.925Z,97372.69
2023-01-05T23:11:52.610Z,97375.34
2023-01-05T23:17:13.215Z,97383.88
2023-01-05T23:22:34.485Z,97377.66
2023-01-05T23:27:55.139Z,97374.66
2023-01-05T23:33:17.553Z,97382.97
2023-01-05T23:38:39.173Z,97379.00
2023-01-05T23:43:59.714Z,97370.78
2023-01-05T23:49:20.524Z,97367.69
2023-01-05T23:54:41.176Z,97366.84
